createdAt,value
2022-08-17T04:52:48.413Z,99837.00
2022-08-17T04:55:22.949Z,99843.00
2022-08-17T04:57:56.818Z,99849.00
2022-08-17T05:00:30.841Z,99844.00
2022-08-17T05:03:05.161Z,99852.00
2022-08-17T05:05:43.258Z,99854.00
2022-08-17T05:08:20.890Z,99848.00
2022-08-17T05:10:54.678Z,99856.00
2022-08-17T05:13:30.592Z,99850.00
2022-08-17T05:16:07.388Z,99858.00
2022-08-17T05:18:41.352Z,99852.00
2022-08-17T05:21:16.218Z,99853.00
2022-08-17T05:23:54.682Z,99851.00
2022-08-17T05:26:29.560Z,99855.00
2022-08-17T05:29:03.340Z,99852.00
2022-08-17T05:31:37.296Z,99848.00
2022-08-17T05:34:11.617Z,99844.00
2022-08-17T05:36:45.241Z,99830.00
2022-08-17T05:39:21.042Z,99836.00
2022-08-17T05:41:56.028Z,99846.00
2022-08-17T05:44:29.479Z,99843.00
2022-08-17T05:47:03.982Z,99853.00
2022-08-17T05:49:38.089Z,99840.00
2022-08-17T05:52:26.229Z,99844.00
2022-08-17T05:55:16.959Z,99847.00
2022-08-17T05:58:10.463Z,99840.00
2022-08-17T06:00:57.374Z,99820.00
2022-08-17T06:03:50.958Z,99840.00
2022-08-17T06:06:39.961Z,99830.00
2022-08-17T06:09:35.240Z,99839.00
2022-08-17T06:12:41.701Z,99827.00
2022-08-17T06:15:41.828Z,99819.00
2022-08-17T06:18:19.149Z,99811.00
2022-08-17T06:20:58.791Z,99817.00
2022-08-17T06:23:38.019Z,99813.00
2022-08-17T06:26:20.400Z,99802.00
2022-08-17T06:29:01.072Z,99830.00
2022-08-17T06:31:38.452Z,99827.00
2022-08-17T18:52:51.462Z,100039.00
2022-08-17T18:55:28.995Z,100040.00
2022-08-17T18:58:17.600Z,100037.00
2022-08-17T19:00:52.572Z,100035.00
2022-08-17T19:03:28.493Z,100059.00
2022-08-17T19:06:23.077Z,100057.00
2022-08-17T19:08:58.455Z,100055.00
2022-08-17T19:11:35.867Z,100078.00
2022-08-17T19:14:16.672Z,100070.00
2022-08-17T19:16:56.961Z,100082.00
2022-08-17T19:19:39.181Z,100057.00
2022-08-17T19:22:28.886Z,100088.00
2022-08-17T19:25:16.938Z,100100.00
2022-08-17T19:28:00.766Z,100099.00
2022-08-17T19:30:37.626Z,100103.00
2022-08-17T19:33:15.425Z,100099.00
2022-08-17T19:36:05.013Z,100098.00
2022-08-17T19:38:54.129Z,100096.00
2022-08-17T19:41:42.897Z,100089.00
2022-08-17T19:44:47.134Z,100079.00
2022-08-17T19:47:53.856Z,100079.00
2022-08-17T19:50:39.149Z,100065.00
2022-08-17T19:53:36.871Z,100055.00
2022-08-17T19:56:32.274Z,100064.00
2022-08-17T19:59:17.303Z,100059.00
2022-08-17T20:01:58.174Z,100068.00
2022-08-17T20:04:43.456Z,100059.00
2022-08-17T20:07:23.424Z,100067.00
2022-08-17T20:10:08.366Z,100070.00
2022-08-17T20:12:45.511Z,100084.00
2022-08-17T20:15:29.618Z,100085.00
2022-08-17T20:18:13.854Z,100088.00
2022-08-17T20:20:59.471Z,100087.00
2022-08-17T20:23:53.527Z,100092.00
2022-08-17T20:26:55.519Z,100097.00
2022-08-17T20:29:55.485Z,100090.00
2022-08-17T20:32:35.333Z,100081.00
2022-08-17T20:35:26.856Z,100082.00
2022-08-17T20:38:03.500Z,100091.00
2022-08-17T20:40:40.885Z,100084.00
2022-08-17T20:43:46.817Z,100083.00
2022-08-17T20:46:44.518Z,100088.00
2022-08-17T20:49:41.398Z,100087.00
2022-08-17T20:52:37.275Z,100086.00
2022-08-17T20:55:52.217Z,100089.00
2022-08-17T20:58:48.267Z,100103.00
2022-08-17T21:01:39.770Z,100094.00
2022-08-17T21:04:48.339Z,100113.00
2022-08-17T21:07:30.050Z,100108.00
2022-08-17T21:10:18.527Z,100111.00
2022-08-17T21:13:02.673Z,100111.00
2022-08-17T21:15:46.061Z,100121.00
2022-08-17T21:18:34.173Z,100105.00
2022-08-17T21:21:25.045Z,100114.00
2022-08-17T21:24:26.978Z,100116.00
2022-08-17T21:27:21.207Z,100107.00
2022-08-17T21:30:22.374Z,100119.00
2022-08-17T21:33:24.944Z,100127.00
2022-08-17T21:36:24.847Z,100123.00
2022-08-17T21:39:08.758Z,100110.00
2022-08-17T21:41:52.870Z,100110.00
2022-08-17T21:44:36.198Z,100112.00
2022-08-17T21:47:24.276Z,100106.00
2022-08-17T21:50:18.735Z,100121.00
2022-08-17T21:52:55.478Z,100120.00
2022-08-17T21:55:33.654Z,100116.00
2022-08-17T21:58:28.103Z,100115.00
2022-08-17T22:01:21.323Z,100124.00
2022-08-17T22:04:05.248Z,100118.00
2022-08-17T22:06:52.287Z,100125.00
2022-08-17T22:09:36.801Z,100127.00
2022-08-17T22:12:16.786Z,100123.00
2022-08-17T22:15:01.696Z,100130.00
2022-08-17T22:17:38.460Z,100124.00
2022-08-17T22:20:15.846Z,100123.00
2022-08-17T22:23:29.985Z,100120.00
2022-08-17T22:26:11.222Z,100120.00
2022-08-17T22:28:50.700Z,100129.00
2022-08-17T22:31:27.815Z,100130.00
2022-08-17T22:34:16.128Z,100130.00
2022-08-17T22:36:49.576Z,100134.00
2022-08-17T22:39:42.242Z,100123.00
2022-08-17T22:42:17.396Z,100126.00
2022-08-17T22:44:54.359Z,100116.00
2022-08-17T22:47:38.750Z,100113.00
2022-08-17T22:50:23.993Z,100114.00
2022-08-17T22:53:20.884Z,100112.00
2022-08-17T22:56:26.597Z,100123.00
2022-08-17T22:59:19.106Z,100112.00
2022-08-17T23:02:23.813Z,100137.00
2022-08-17T23:05:22.864Z,100128.00
2022-08-17T23:07:56.336Z,100126.00
2022-08-17T23:10:30.680Z,100121.00
2022-08-17T23:13:04.750Z,100114.00
2022-08-17T23:15:40.724Z,100130.00
2022-08-17T23:18:14.194Z,100136.00
2022-08-17T23:20:49.180Z,100128.00
2022-08-17T23:23:23.993Z,100116.00
2022-08-17T23:25:57.630Z,100126.00
2022-08-17T23:28:31.050Z,100132.00
2022-08-17T23:31:06.466Z,100127.00
2022-08-17T23:33:42.412Z,100129.00
2022-08-17T23:36:18.187Z,100129.00
2022-08-17T23:38:53.553Z,100125.00
2022-08-17T23:41:36.355Z,100115.00
2022-08-17T23:44:09.929Z,100131.00
2022-08-17T23:46:44.423Z,100132.00
2022-08-17T23:49:18.983Z,100126.00
2022-08-17T23:51:55.286Z,100122.00
2022-08-17T23:54:43.717Z,100141.00
2022-08-17T23:57:33.794Z,100147.00
